Maldives Meteorological Service

METAR

Station
VRMM
METAR VRMM 271600Z 05004KT 9999 FEW018 BKN280 29/25 Q1011 NOSIG=
VRMH
METAR VRMH 271600Z 33003KT 9999 FEW018 28/25 Q1012=
VRMK
METAR VRMK 271600Z 00000KT 9999 FEW018 SCT270 27/25 Q1012=
VRMT
METAR VRMT 271600Z VRB02KT 9999 FEW018 FEW019CB BKN260 27/25 Q1012 CB SW=
VRMG
METAR VRMG 271600Z 00000KT 9999 FEW017 FEW018CB BKN260 25/25 Q1011 CB NW TEMPO 5000 -SHRA=
Last Updated : 2020-09-27 21:00:46

SPECI

Station
VRMM
VRMH
VRMK
VRMT
VRMG
Last Updated : 2020-09-27 21:00:46